Terminal Aerodrome Forecast
Issued by NWS Cleveland, OH

Home | Current Version | Previous Version | Graphics & Text | Print | Product List | Glossary On
Versions: 1 2 3 4 5 6 7 8 9 10 11 12 13 14 15 16 17 18 19 20 21
000
FTUS41 KCLE 211139
TAFERI
TAF
KERI 211139Z 2112/2212 08005KT 4SM BR SCT004
      TEMPO 2112/2114 2SM BR BKN004
     FM211400 08005KT P6SM BKN100
     FM212000 04008KT P6SM BKN120
     FM220400 11007KT 6SM -SHRA VCTS OVC035CB
     FM221000 19008KT 6SM -SHRA OVC015=

USA.gov is the U.S. government's official web portal to all federal, state and local government web resources and services.